sensor_id;sensor_type;location;lat;lon;timestamp;P1;durP1;ratioP1;P2;durP2;ratioP2
30299;SDS011;17110;52.602;12.998;2024-01-06T00:02:22;66.32;;;35.58;;
30299;SDS011;17110;52.602;12.998;2024-01-06T00:07:22;64.43;;;35.00;;
30299;SDS011;17110;52.602;12.998;2024-01-06T00:12:23;67.97;;;37.05;;
30299;SDS011;17110;52.602;12.998;2024-01-06T00:17:25;61.22;;;35.88;;
30299;SDS011;17110;52.602;12.998;2024-01-06T00:22:25;74.63;;;39.00;;
30299;SDS011;17110;52.602;12.998;2024-01-06T00:27:26;65.60;;;36.33;;
30299;SDS011;17110;52.602;12.998;2024-01-06T00:32:28;71.22;;;37.10;;
30299;SDS011;17110;52.602;12.998;2024-01-06T00:37:29;63.38;;;38.08;;
30299;SDS011;17110;52.602;12.998;2024-01-06T00:42:29;65.30;;;37.05;;
30299;SDS011;17110;52.602;12.998;2024-01-06T00:47:31;64.45;;;36.13;;
30299;SDS011;17110;52.602;12.998;2024-01-06T00:52:32;66.13;;;35.38;;
30299;SDS011;17110;52.602;12.998;2024-01-06T00:57:32;66.95;;;37.72;;
30299;SDS011;17110;52.602;12.998;2024-01-06T01:02:34;62.70;;;36.83;;
30299;SDS011;17110;52.602;12.998;2024-01-06T01:07:35;73.25;;;39.70;;
30299;SDS011;17110;52.602;12.998;2024-01-06T01:12:36;69.15;;;37.53;;
30299;SDS011;17110;52.602;12.998;2024-01-06T01:17:38;65.13;;;36.85;;
30299;SDS011;17110;52.602;12.998;2024-01-06T01:22:39;62.95;;;35.83;;
30299;SDS011;17110;52.602;12.998;2024-01-06T01:27:39;67.28;;;37.83;;
30299;SDS011;17110;52.602;12.998;2024-01-06T01:32:41;66.30;;;38.45;;
30299;SDS011;17110;52.602;12.998;2024-01-06T01:37:42;59.70;;;33.35;;
30299;SDS011;17110;52.602;12.998;2024-01-06T01:42:42;59.38;;;34.05;;
30299;SDS011;17110;52.602;12.998;2024-01-06T01:47:44;63.97;;;35.22;;
30299;SDS011;17110;52.602;12.998;2024-01-06T01:52:45;63.22;;;34.83;;
30299;SDS011;17110;52.602;12.998;2024-01-06T01:57:46;67.28;;;35.20;;
30299;SDS011;17110;52.602;12.998;2024-01-06T02:02:48;64.40;;;36.95;;
30299;SDS011;17110;52.602;12.998;2024-01-06T02:07:49;64.80;;;36.55;;
30299;SDS011;17110;52.602;12.998;2024-01-06T02:12:50;67.95;;;36.38;;
30299;SDS011;17110;52.602;12.998;2024-01-06T02:17:52;62.67;;;34.95;;
30299;SDS011;17110;52.602;12.998;2024-01-06T02:22:54;59.10;;;34.10;;
30299;SDS011;17110;52.602;12.998;2024-01-06T02:27:54;70.15;;;36.28;;
30299;SDS011;17110;52.602;12.998;2024-01-06T02:32:55;56.83;;;33.50;;
30299;SDS011;17110;52.602;12.998;2024-01-06T02:37:57;60.63;;;33.35;;
30299;SDS011;17110;52.602;12.998;2024-01-06T02:42:58;58.20;;;33.10;;
30299;SDS011;17110;52.602;12.998;2024-01-06T02:47:58;60.10;;;33.28;;
30299;SDS011;17110;52.602;12.998;2024-01-06T02:53:00;60.15;;;34.28;;
30299;SDS011;17110;52.602;12.998;2024-01-06T02:58:01;59.83;;;33.17;;
30299;SDS011;17110;52.602;12.998;2024-01-06T03:03:02;57.75;;;33.25;;
30299;SDS011;17110;52.602;12.998;2024-01-06T03:08:04;57.55;;;33.65;;
30299;SDS011;17110;52.602;12.998;2024-01-06T03:13:05;54.15;;;32.10;;
30299;SDS011;17110;52.602;12.998;2024-01-06T03:18:06;56.00;;;33.13;;
30299;SDS011;17110;52.602;12.998;2024-01-06T03:23:08;56.72;;;33.17;;
30299;SDS011;17110;52.602;12.998;2024-01-06T03:28:08;58.85;;;33.45;;
30299;SDS011;17110;52.602;12.998;2024-01-06T03:33:09;51.85;;;30.67;;
30299;SDS011;17110;52.602;12.998;2024-01-06T03:38:11;65.82;;;35.00;;
30299;SDS011;17110;52.602;12.998;2024-01-06T03:43:12;57.50;;;32.33;;
30299;SDS011;17110;52.602;12.998;2024-01-06T03:48:12;56.60;;;31.92;;
30299;SDS011;17110;52.602;12.998;2024-01-06T03:53:14;61.80;;;33.92;;
30299;SDS011;17110;52.602;12.998;2024-01-06T03:58:15;60.33;;;33.58;;
30299;SDS011;17110;52.602;12.998;2024-01-06T04:03:15;63.65;;;34.17;;
30299;SDS011;17110;52.602;12.998;2024-01-06T04:08:18;69.55;;;34.63;;
30299;SDS011;17110;52.602;12.998;2024-01-06T04:13:19;61.08;;;34.45;;
30299;SDS011;17110;52.602;12.998;2024-01-06T04:18:19;64.32;;;33.67;;
30299;SDS011;17110;52.602;12.998;2024-01-06T04:23:21;60.45;;;34.75;;
30299;SDS011;17110;52.602;12.998;2024-01-06T04:28:22;59.00;;;33.30;;
30299;SDS011;17110;52.602;12.998;2024-01-06T04:33:23;63.17;;;33.20;;
30299;SDS011;17110;52.602;12.998;2024-01-06T04:38:24;62.83;;;34.35;;
30299;SDS011;17110;52.602;12.998;2024-01-06T04:43:25;61.25;;;34.58;;
30299;SDS011;17110;52.602;12.998;2024-01-06T04:48:26;63.58;;;34.53;;
30299;SDS011;17110;52.602;12.998;2024-01-06T04:53:28;63.42;;;36.33;;
30299;SDS011;17110;52.602;12.998;2024-01-06T04:58:28;62.67;;;35.67;;
30299;SDS011;17110;52.602;12.998;2024-01-06T05:03:29;63.75;;;33.05;;
30299;SDS011;17110;52.602;12.998;2024-01-06T05:08:31;61.17;;;35.67;;
30299;SDS011;17110;52.602;12.998;2024-01-06T05:13:31;69.25;;;35.45;;
30299;SDS011;17110;52.602;12.998;2024-01-06T05:18:32;65.05;;;33.70;;
30299;SDS011;17110;52.602;12.998;2024-01-06T05:23:34;59.78;;;33.53;;
30299;SDS011;17110;52.602;12.998;2024-01-06T05:28:35;69.93;;;35.78;;
30299;SDS011;17110;52.602;12.998;2024-01-06T05:33:35;62.50;;;33.13;;
30299;SDS011;17110;52.602;12.998;2024-01-06T05:38:37;61.85;;;33.03;;
30299;SDS011;17110;52.602;12.998;2024-01-06T05:43:38;65.57;;;35.63;;
30299;SDS011;17110;52.602;12.998;2024-01-06T05:48:39;64.45;;;35.83;;
30299;SDS011;17110;52.602;12.998;2024-01-06T05:53:40;63.80;;;33.13;;
30299;SDS011;17110;52.602;12.998;2024-01-06T05:58:41;56.20;;;32.78;;
30299;SDS011;17110;52.602;12.998;2024-01-06T06:03:42;57.88;;;32.80;;
30299;SDS011;17110;52.602;12.998;2024-01-06T06:08:44;62.10;;;33.88;;
30299;SDS011;17110;52.602;12.998;2024-01-06T06:13:44;68.25;;;33.88;;
30299;SDS011;17110;52.602;12.998;2024-01-06T06:18:45;55.78;;;29.67;;
30299;SDS011;17110;52.602;12.998;2024-01-06T06:23:47;60.65;;;30.60;;
30299;SDS011;17110;52.602;12.998;2024-01-06T06:28:47;59.40;;;32.55;;
30299;SDS011;17110;52.602;12.998;2024-01-06T06:33:48;61.22;;;32.00;;
30299;SDS011;17110;52.602;12.998;2024-01-06T06:38:50;57.85;;;30.83;;
30299;SDS011;17110;52.602;12.998;2024-01-06T06:43:51;60.22;;;32.40;;
30299;SDS011;17110;52.602;12.998;2024-01-06T06:48:51;60.53;;;31.27;;
30299;SDS011;17110;52.602;12.998;2024-01-06T06:53:53;60.67;;;33.35;;
30299;SDS011;17110;52.602;12.998;2024-01-06T06:58:54;60.97;;;30.73;;
30299;SDS011;17110;52.602;12.998;2024-01-06T07:03:54;59.80;;;30.80;;
30299;SDS011;17110;52.602;12.998;2024-01-06T07:08:56;55.10;;;29.88;;
30299;SDS011;17110;52.602;12.998;2024-01-06T07:13:57;67.50;;;31.30;;
30299;SDS011;17110;52.602;12.998;2024-01-06T07:18:58;54.30;;;31.08;;
30299;SDS011;17110;52.602;12.998;2024-01-06T07:24:00;68.25;;;33.15;;
30299;SDS011;17110;52.602;12.998;2024-01-06T07:29:00;61.05;;;30.63;;
30299;SDS011;17110;52.602;12.998;2024-01-06T07:34:01;68.78;;;32.72;;
30299;SDS011;17110;52.602;12.998;2024-01-06T07:39:03;57.35;;;30.55;;
30299;SDS011;17110;52.602;12.998;2024-01-06T07:44:03;69.10;;;34.67;;
30299;SDS011;17110;52.602;12.998;2024-01-06T07:49:04;71.97;;;33.33;;
30299;SDS011;17110;52.602;12.998;2024-01-06T07:54:06;63.60;;;33.90;;
30299;SDS011;17110;52.602;12.998;2024-01-06T07:59:07;59.22;;;30.85;;
30299;SDS011;17110;52.602;12.998;2024-01-06T08:04:07;66.70;;;34.45;;
30299;SDS011;17110;52.602;12.998;2024-01-06T08:09:09;64.25;;;33.47;;
30299;SDS011;17110;52.602;12.998;2024-01-06T08:14:10;63.72;;;32.95;;
30299;SDS011;17110;52.602;12.998;2024-01-06T08:19:11;66.72;;;35.33;;
30299;SDS011;17110;52.602;12.998;2024-01-06T08:24:13;61.72;;;32.15;;
30299;SDS011;17110;52.602;12.998;2024-01-06T08:29:13;68.07;;;34.83;;
30299;SDS011;17110;52.602;12.998;2024-01-06T08:34:14;67.28;;;33.03;;
30299;SDS011;17110;52.602;12.998;2024-01-06T08:39:16;62.10;;;33.90;;
30299;SDS011;17110;52.602;12.998;2024-01-06T08:44:17;60.33;;;33.13;;
30299;SDS011;17110;52.602;12.998;2024-01-06T08:49:17;56.25;;;32.53;;
30299;SDS011;17110;52.602;12.998;2024-01-06T08:54:19;61.67;;;33.15;;
30299;SDS011;17110;52.602;12.998;2024-01-06T08:59:20;60.40;;;31.58;;
30299;SDS011;17110;52.602;12.998;2024-01-06T09:04:21;64.43;;;32.35;;
30299;SDS011;17110;52.602;12.998;2024-01-06T09:09:23;62.40;;;31.75;;
30299;SDS011;17110;52.602;12.998;2024-01-06T09:14:23;55.17;;;30.10;;
30299;SDS011;17110;52.602;12.998;2024-01-06T09:19:24;56.20;;;30.17;;
30299;SDS011;17110;52.602;12.998;2024-01-06T09:24:26;53.88;;;29.58;;
30299;SDS011;17110;52.602;12.998;2024-01-06T09:29:27;52.35;;;30.15;;
30299;SDS011;17110;52.602;12.998;2024-01-06T09:34:27;56.65;;;30.95;;
30299;SDS011;17110;52.602;12.998;2024-01-06T09:39:29;54.38;;;30.85;;
30299;SDS011;17110;52.602;12.998;2024-01-06T09:44:30;52.97;;;30.10;;
30299;SDS011;17110;52.602;12.998;2024-01-06T09:49:31;54.47;;;29.70;;
30299;SDS011;17110;52.602;12.998;2024-01-06T09:54:35;52.42;;;29.27;;
30299;SDS011;17110;52.602;12.998;2024-01-06T09:59:37;54.50;;;29.85;;
30299;SDS011;17110;52.602;12.998;2024-01-06T10:04:39;60.08;;;32.10;;
30299;SDS011;17110;52.602;12.998;2024-01-06T10:09:41;54.17;;;29.92;;
30299;SDS011;17110;52.602;12.998;2024-01-06T10:14:42;55.85;;;30.27;;
30299;SDS011;17110;52.602;12.998;2024-01-06T10:19:44;55.75;;;31.70;;
30299;SDS011;17110;52.602;12.998;2024-01-06T10:24:46;58.42;;;29.73;;
30299;SDS011;17110;52.602;12.998;2024-01-06T10:29:47;52.65;;;28.63;;
30299;SDS011;17110;52.602;12.998;2024-01-06T10:34:48;46.53;;;26.88;;
30299;SDS011;17110;52.602;12.998;2024-01-06T10:39:50;55.03;;;29.95;;
30299;SDS011;17110;52.602;12.998;2024-01-06T10:45:06;63.20;;;31.35;;
30299;SDS011;17110;52.602;12.998;2024-01-06T10:50:08;50.85;;;30.63;;
30299;SDS011;17110;52.602;12.998;2024-01-06T10:55:11;55.95;;;31.58;;
30299;SDS011;17110;52.602;12.998;2024-01-06T11:00:12;49.50;;;28.48;;
30299;SDS011;17110;52.602;12.998;2024-01-06T11:05:13;44.63;;;27.73;;
30299;SDS011;17110;52.602;12.998;2024-01-06T11:10:16;44.30;;;26.70;;
30299;SDS011;17110;52.602;12.998;2024-01-06T11:20:40;44.00;;;26.80;;
30299;SDS011;17110;52.602;12.998;2024-01-06T11:26:16;46.03;;;27.85;;
30299;SDS011;17110;52.602;12.998;2024-01-06T11:31:17;46.85;;;26.48;;
30299;SDS011;17110;52.602;12.998;2024-01-06T11:36:18;49.63;;;28.50;;
30299;SDS011;17110;52.602;12.998;2024-01-06T11:46:48;45.08;;;26.73;;
30299;SDS011;17110;52.602;12.998;2024-01-06T11:51:48;43.05;;;25.92;;
30299;SDS011;17110;52.602;12.998;2024-01-06T11:56:51;41.35;;;26.55;;
30299;SDS011;17110;52.602;12.998;2024-01-06T12:01:51;47.20;;;26.77;;
30299;SDS011;17110;52.602;12.998;2024-01-06T12:06:52;39.03;;;24.17;;
30299;SDS011;17110;52.602;12.998;2024-01-06T12:12:01;42.00;;;26.80;;
30299;SDS011;17110;52.602;12.998;2024-01-06T12:17:03;46.58;;;27.17;;
30299;SDS011;17110;52.602;12.998;2024-01-06T12:22:04;39.50;;;25.65;;
30299;SDS011;17110;52.602;12.998;2024-01-06T12:27:07;40.85;;;24.65;;
30299;SDS011;17110;52.602;12.998;2024-01-06T12:32:09;34.47;;;22.73;;
30299;SDS011;17110;52.602;12.998;2024-01-06T12:37:10;33.88;;;21.15;;
30299;SDS011;17110;52.602;12.998;2024-01-06T12:42:15;35.35;;;23.25;;
30299;SDS011;17110;52.602;12.998;2024-01-06T12:47:16;31.75;;;21.65;;
30299;SDS011;17110;52.602;12.998;2024-01-06T12:52:17;30.67;;;20.13;;
30299;SDS011;17110;52.602;12.998;2024-01-06T12:57:19;33.50;;;21.42;;
30299;SDS011;17110;52.602;12.998;2024-01-06T13:02:20;26.75;;;18.27;;
30299;SDS011;17110;52.602;12.998;2024-01-06T13:07:20;27.48;;;19.10;;
30299;SDS011;17110;52.602;12.998;2024-01-06T13:12:23;29.15;;;18.92;;
30299;SDS011;17110;52.602;12.998;2024-01-06T13:17:23;23.35;;;16.48;;
30299;SDS011;17110;52.602;12.998;2024-01-06T13:22:24;26.35;;;17.40;;
30299;SDS011;17110;52.602;12.998;2024-01-06T13:27:26;26.42;;;17.52;;
30299;SDS011;17110;52.602;12.998;2024-01-06T13:32:26;26.17;;;18.02;;
30299;SDS011;17110;52.602;12.998;2024-01-06T13:37:27;26.88;;;17.92;;
30299;SDS011;17110;52.602;12.998;2024-01-06T13:42:29;28.15;;;18.25;;
30299;SDS011;17110;52.602;12.998;2024-01-06T13:47:30;28.05;;;19.42;;
30299;SDS011;17110;52.602;12.998;2024-01-06T13:52:30;30.23;;;18.88;;
30299;SDS011;17110;52.602;12.998;2024-01-06T13:57:32;31.85;;;18.90;;
30299;SDS011;17110;52.602;12.998;2024-01-06T14:02:33;32.63;;;20.52;;
30299;SDS011;17110;52.602;12.998;2024-01-06T14:07:34;28.45;;;18.77;;
30299;SDS011;17110;52.602;12.998;2024-01-06T14:12:36;28.70;;;18.40;;
30299;SDS011;17110;52.602;12.998;2024-01-06T14:17:37;27.80;;;18.75;;
30299;SDS011;17110;52.602;12.998;2024-01-06T14:22:38;33.92;;;19.83;;
30299;SDS011;17110;52.602;12.998;2024-01-06T14:27:40;28.80;;;19.48;;
30299;SDS011;17110;52.602;12.998;2024-01-06T14:32:41;30.75;;;18.55;;
30299;SDS011;17110;52.602;12.998;2024-01-06T14:37:41;27.00;;;17.92;;
30299;SDS011;17110;52.602;12.998;2024-01-06T14:42:43;26.10;;;17.80;;
30299;SDS011;17110;52.602;12.998;2024-01-06T14:47:44;31.00;;;19.15;;
30299;SDS011;17110;52.602;12.998;2024-01-06T14:52:45;29.52;;;18.85;;
30299;SDS011;17110;52.602;12.998;2024-01-06T14:57:47;33.15;;;18.77;;
30299;SDS011;17110;52.602;12.998;2024-01-06T15:02:48;28.23;;;17.23;;
30299;SDS011;17110;52.602;12.998;2024-01-06T15:07:48;29.02;;;16.92;;
30299;SDS011;17110;52.602;12.998;2024-01-06T15:12:50;27.88;;;16.58;;
30299;SDS011;17110;52.602;12.998;2024-01-06T15:17:51;29.08;;;16.55;;
30299;SDS011;17110;52.602;12.998;2024-01-06T15:22:51;24.48;;;14.75;;
30299;SDS011;17110;52.602;12.998;2024-01-06T15:27:53;20.23;;;13.93;;
30299;SDS011;17110;52.602;12.998;2024-01-06T15:32:54;22.02;;;13.50;;
30299;SDS011;17110;52.602;12.998;2024-01-06T15:37:55;19.02;;;11.75;;
30299;SDS011;17110;52.602;12.998;2024-01-06T15:42:57;16.83;;;11.23;;
30299;SDS011;17110;52.602;12.998;2024-01-06T15:47:57;15.82;;;11.60;;
30299;SDS011;17110;52.602;12.998;2024-01-06T15:52:58;18.23;;;10.77;;
30299;SDS011;17110;52.602;12.998;2024-01-06T15:58:00;20.50;;;11.45;;
30299;SDS011;17110;52.602;12.998;2024-01-06T16:03:00;13.38;;;7.93;;
30299;SDS011;17110;52.602;12.998;2024-01-06T16:08:01;13.43;;;9.77;;
30299;SDS011;17110;52.602;12.998;2024-01-06T16:13:03;13.23;;;8.38;;
30299;SDS011;17110;52.602;12.998;2024-01-06T16:18:04;12.30;;;7.78;;
30299;SDS011;17110;52.602;12.998;2024-01-06T16:23:05;12.52;;;8.20;;
30299;SDS011;17110;52.602;12.998;2024-01-06T16:28:07;13.98;;;8.27;;
30299;SDS011;17110;52.602;12.998;2024-01-06T16:33:08;11.75;;;6.75;;
30299;SDS011;17110;52.602;12.998;2024-01-06T16:38:09;10.63;;;7.22;;
30299;SDS011;17110;52.602;12.998;2024-01-06T16:43:11;16.42;;;8.95;;
30299;SDS011;17110;52.602;12.998;2024-01-06T16:48:11;12.00;;;7.75;;
30299;SDS011;17110;52.602;12.998;2024-01-06T16:53:12;10.95;;;6.82;;
30299;SDS011;17110;52.602;12.998;2024-01-06T16:58:14;12.77;;;7.97;;
30299;SDS011;17110;52.602;12.998;2024-01-06T17:03:14;12.10;;;7.47;;
30299;SDS011;17110;52.602;12.998;2024-01-06T17:08:15;9.80;;;6.82;;
30299;SDS011;17110;52.602;12.998;2024-01-06T17:13:17;11.23;;;6.78;;
30299;SDS011;17110;52.602;12.998;2024-01-06T17:18:18;11.27;;;7.28;;
30299;SDS011;17110;52.602;12.998;2024-01-06T17:23:18;11.15;;;6.55;;
30299;SDS011;17110;52.602;12.998;2024-01-06T17:28:20;12.18;;;7.25;;
30299;SDS011;17110;52.602;12.998;2024-01-06T17:33:21;9.50;;;7.18;;
30299;SDS011;17110;52.602;12.998;2024-01-06T17:38:22;11.80;;;8.00;;
30299;SDS011;17110;52.602;12.998;2024-01-06T17:43:24;11.32;;;6.10;;
30299;SDS011;17110;52.602;12.998;2024-01-06T17:48:24;13.48;;;7.85;;
30299;SDS011;17110;52.602;12.998;2024-01-06T17:53:25;12.63;;;7.00;;
30299;SDS011;17110;52.602;12.998;2024-01-06T17:58:27;13.95;;;8.57;;
30299;SDS011;17110;52.602;12.998;2024-01-06T18:03:27;14.35;;;7.88;;
30299;SDS011;17110;52.602;12.998;2024-01-06T18:08:28;10.73;;;7.90;;
30299;SDS011;17110;52.602;12.998;2024-01-06T18:13:30;12.70;;;7.85;;
30299;SDS011;17110;52.602;12.998;2024-01-06T18:18:31;13.77;;;9.02;;
30299;SDS011;17110;52.602;12.998;2024-01-06T18:23:31;14.07;;;8.95;;
30299;SDS011;17110;52.602;12.998;2024-01-06T18:28:33;11.13;;;8.20;;
30299;SDS011;17110;52.602;12.998;2024-01-06T18:33:34;10.48;;;7.68;;
30299;SDS011;17110;52.602;12.998;2024-01-06T18:38:34;15.68;;;8.90;;
30299;SDS011;17110;52.602;12.998;2024-01-06T18:43:36;12.30;;;8.57;;
30299;SDS011;17110;52.602;12.998;2024-01-06T18:48:37;13.95;;;9.07;;
30299;SDS011;17110;52.602;12.998;2024-01-06T18:53:38;12.52;;;8.75;;
30299;SDS011;17110;52.602;12.998;2024-01-06T18:58:41;14.27;;;9.02;;
30299;SDS011;17110;52.602;12.998;2024-01-06T19:03:41;13.10;;;9.18;;
30299;SDS011;17110;52.602;12.998;2024-01-06T19:08:42;12.27;;;9.23;;
30299;SDS011;17110;52.602;12.998;2024-01-06T19:13:44;13.00;;;8.50;;
30299;SDS011;17110;52.602;12.998;2024-01-06T19:18:45;11.48;;;8.18;;
30299;SDS011;17110;52.602;12.998;2024-01-06T19:23:45;12.52;;;8.30;;
30299;SDS011;17110;52.602;12.998;2024-01-06T19:28:47;13.65;;;7.43;;
30299;SDS011;17110;52.602;12.998;2024-01-06T19:33:48;11.68;;;7.60;;
30299;SDS011;17110;52.602;12.998;2024-01-06T19:38:48;9.75;;;7.28;;
30299;SDS011;17110;52.602;12.998;2024-01-06T19:43:50;11.13;;;7.88;;
30299;SDS011;17110;52.602;12.998;2024-01-06T19:48:51;13.70;;;8.25;;
30299;SDS011;17110;52.602;12.998;2024-01-06T19:53:52;10.70;;;7.55;;
30299;SDS011;17110;52.602;12.998;2024-01-06T19:58:53;12.18;;;7.15;;
30299;SDS011;17110;52.602;12.998;2024-01-06T20:03:54;12.27;;;7.55;;
30299;SDS011;17110;52.602;12.998;2024-01-06T20:08:55;11.90;;;7.40;;
30299;SDS011;17110;52.602;12.998;2024-01-06T20:13:57;9.02;;;6.20;;
30299;SDS011;17110;52.602;12.998;2024-01-06T20:18:57;10.90;;;6.50;;
30299;SDS011;17110;52.602;12.998;2024-01-06T20:23:58;8.05;;;6.50;;
30299;SDS011;17110;52.602;12.998;2024-01-06T20:29:00;10.10;;;6.47;;
30299;SDS011;17110;52.602;12.998;2024-01-06T20:34:00;9.68;;;6.35;;
30299;SDS011;17110;52.602;12.998;2024-01-06T20:39:01;7.30;;;5.38;;
30299;SDS011;17110;52.602;12.998;2024-01-06T20:44:04;9.13;;;5.25;;
30299;SDS011;17110;52.602;12.998;2024-01-06T20:49:05;7.35;;;5.75;;
30299;SDS011;17110;52.602;12.998;2024-01-06T20:54:06;8.60;;;5.65;;
30299;SDS011;17110;52.602;12.998;2024-01-06T20:59:08;11.55;;;6.70;;
30299;SDS011;17110;52.602;12.998;2024-01-06T21:04:08;9.60;;;5.28;;
30299;SDS011;17110;52.602;12.998;2024-01-06T21:09:09;10.00;;;5.05;;
30299;SDS011;17110;52.602;12.998;2024-01-06T21:14:11;10.73;;;5.22;;
30299;SDS011;17110;52.602;12.998;2024-01-06T21:19:13;5.57;;;4.63;;
30299;SDS011;17110;52.602;12.998;2024-01-06T21:24:13;9.38;;;4.72;;
30299;SDS011;17110;52.602;12.998;2024-01-06T21:29:15;6.18;;;4.68;;
30299;SDS011;17110;52.602;12.998;2024-01-06T21:34:17;7.05;;;4.72;;
30299;SDS011;17110;52.602;12.998;2024-01-06T21:39:17;5.15;;;4.03;;
30299;SDS011;17110;52.602;12.998;2024-01-06T21:44:19;4.82;;;3.60;;
30299;SDS011;17110;52.602;12.998;2024-01-06T21:49:20;6.85;;;4.25;;
30299;SDS011;17110;52.602;12.998;2024-01-06T21:54:21;6.90;;;4.65;;
30299;SDS011;17110;52.602;12.998;2024-01-06T21:59:23;5.75;;;3.88;;
30299;SDS011;17110;52.602;12.998;2024-01-06T22:04:23;4.45;;;3.83;;
30299;SDS011;17110;52.602;12.998;2024-01-06T22:09:24;8.85;;;4.25;;
30299;SDS011;17110;52.602;12.998;2024-01-06T22:14:26;4.13;;;3.67;;
30299;SDS011;17110;52.602;12.998;2024-01-06T22:19:27;6.03;;;3.15;;
30299;SDS011;17110;52.602;12.998;2024-01-06T22:24:27;5.93;;;3.28;;
30299;SDS011;17110;52.602;12.998;2024-01-06T22:29:29;6.68;;;4.28;;
30299;SDS011;17110;52.602;12.998;2024-01-06T22:34:30;4.85;;;3.42;;
30299;SDS011;17110;52.602;12.998;2024-01-06T22:39:30;4.72;;;3.15;;
30299;SDS011;17110;52.602;12.998;2024-01-06T22:44:32;5.15;;;3.72;;
30299;SDS011;17110;52.602;12.998;2024-01-06T22:49:33;7.03;;;3.50;;
30299;SDS011;17110;52.602;12.998;2024-01-06T22:54:34;6.95;;;3.55;;
30299;SDS011;17110;52.602;12.998;2024-01-06T22:59:36;5.70;;;3.78;;
30299;SDS011;17110;52.602;12.998;2024-01-06T23:04:36;5.60;;;3.08;;
30299;SDS011;17110;52.602;12.998;2024-01-06T23:09:37;7.20;;;3.90;;
30299;SDS011;17110;52.602;12.998;2024-01-06T23:14:39;8.82;;;4.50;;
30299;SDS011;17110;52.602;12.998;2024-01-06T23:19:39;5.78;;;3.42;;
30299;SDS011;17110;52.602;12.998;2024-01-06T23:24:40;8.77;;;4.20;;
30299;SDS011;17110;52.602;12.998;2024-01-06T23:29:42;4.40;;;3.30;;
30299;SDS011;17110;52.602;12.998;2024-01-06T23:34:43;4.78;;;3.05;;
30299;SDS011;17110;52.602;12.998;2024-01-06T23:39:43;5.13;;;3.22;;
30299;SDS011;17110;52.602;12.998;2024-01-06T23:44:45;6.88;;;4.57;;
30299;SDS011;17110;52.602;12.998;2024-01-06T23:49:46;7.85;;;3.95;;
30299;SDS011;17110;52.602;12.998;2024-01-06T23:54:46;7.30;;;4.32;;
30299;SDS011;17110;52.602;12.998;2024-01-06T23:59:48;4.40;;;3.92;;
